Catàleg de serveis del Meteocat
Campanya meteocatpedra

Dades de l'estació automàtica la Vall d'en Bas

?
?
Resum diari 21:30 TU
Dades diàries de l'estació meteorològica
Temperatura mitjana 5.3 °C
Temperatura màxima 13.2 °C 13:19 TU
Temperatura mínima -0.8 °C 4:50 TU
Humitat relativa mitjana 89%
Precipitació acumulada 0.0 mm
Ratxa màxima del vent (2 m) 19.8 km/h - 204º 13:52 TU
Irradiació solar global 7.2 MJ/m2

El tram horari està expressat en Temps Universal (TU). Cal sumar una hora en horari d'hivern i dues en horari d'estiu per passar a l'hora oficial.

la Vall d'en Bas

Metadades estació meteorol´gica
Municipi La Vall d'en Bas
Comarca Garrotxa
Altitud 461 m
Data alta 16.03.2000
Estat actual Operativa
Dades de període
Període
TU
TM
°C
TX
°C
TN
°C
HRM
%
PPT
mm
VVM (2 m)
km/h
DVM (2 m)
graus
VVX (2 m)
km/h
RS
W/m2
00:00 - 00:30 0.8 1.1 0.4 100 0.0 1.8 264 5.8 0
00:30 - 01:00 0.7 1.1 0.3 100 0.0 1.4 329 4.3 0
01:00 - 01:30 0.4 0.9 0.1 100 0.0 1.1 263 4.0 0
01:30 - 02:00 -0.1 0.5 -0.5 100 0.0 1.4 223 3.6 0
02:00 - 02:30 -0.2 0.1 -0.6 100 0.0 1.1 206 4.0 0
02:30 - 03:00 -0.2 0.2 -0.6 100 0.0 0.7 267 3.2 0
03:00 - 03:30 -0.2 0.0 -0.6 100 0.0 1.4 204 4.3 0
03:30 - 04:00 -0.2 0.2 -0.5 100 0.0 1.4 229 3.6 0
04:00 - 04:30 -0.4 -0.1 -0.6 100 0.0 1.1 238 3.6 0
04:30 - 05:00 -0.4 0.0 -0.8 100 0.0 0.4 17 2.5 0
05:00 - 05:30 -0.4 -0.3 -0.6 100 0.0 0.7 226 3.6 0
05:30 - 06:00 -0.4 -0.1 -0.7 100 0.0 0.4 324 2.9 0
06:00 - 06:30 -0.4 -0.3 -0.5 100 0.0 0.0 0 0.0 0
06:30 - 07:00 -0.1 0.3 -0.4 100 0.0 0.7 282 2.9 7
07:00 - 07:30 0.3 0.5 0.2 100 0.0 0.7 19 3.2 33
07:30 - 08:00 1.0 1.7 0.4 100 0.0 1.1 282 2.5 58
08:00 - 08:30 2.1 2.7 1.7 100 0.0 0.7 59 2.5 87
08:30 - 09:00 3.2 3.6 2.7 100 0.0 2.2 326 4.7 87
09:00 - 09:30 4.1 4.5 3.7 100 0.0 2.2 225 5.0 87
09:30 - 10:00 5.3 6.4 4.6 100 0.0 1.4 250 3.6 182
10:00 - 10:30 7.2 7.9 6.5 94 0.0 1.8 255 5.8 348
10:30 - 11:00 8.8 9.8 8.0 80 0.0 1.1 235 4.3 307
11:00 - 11:30 9.5 9.6 9.2 74 0.0 1.8 350 4.3 247
11:30 - 12:00 10.0 10.6 9.6 70 0.0 1.8 19 5.4 238
12:00 - 12:30 11.2 12.1 10.7 66 0.0 2.9 201 8.3 357
12:30 - 13:00 12.7 13.0 12.3 60 0.0 5.0 185 13.7 441
13:00 - 13:30 13.0 13.2 12.7 59 0.0 7.9 201 18.0 434
13:30 - 14:00 12.8 13.2 12.5 60 0.0 8.6 197 19.8 379
14:00 - 14:30 12.8 13.0 12.6 60 0.0 6.8 199 16.9 311
14:30 - 15:00 12.7 13.0 12.5 59 0.0 5.8 151 19.4 240
15:00 - 15:30 12.2 12.6 11.5 61 0.0 7.2 208 13.7 152
15:30 - 16:00 10.9 11.4 10.6 66 0.0 5.4 184 12.6 38
16:00 - 16:30 10.2 10.6 9.6 72 0.0 3.6 261 9.4 17
16:30 - 17:00 9.1 9.6 8.4 81 0.0 2.9 311 8.3 0
17:00 - 17:30 8.7 9.1 8.4 86 0.0 2.5 341 4.7 0
17:30 - 18:00 8.4 8.7 8.0 90 0.0 1.1 33 3.2 0
18:00 - 18:30 7.5 8.1 7.1 98 0.0 3.6 260 7.6 0
18:30 - 19:00 7.9 8.2 7.6 92 0.0 3.2 353 7.9 0
19:00 - 19:30 7.7 8.0 7.5 95 0.0 2.2 41 4.0 0
19:30 - 20:00 6.8 7.4 5.9 99 0.0 2.5 333 4.3 0
20:00 - 20:30 5.6 5.9 5.5 100 0.0 1.1 123 4.0 0
20:30 - 21:00 5.1 5.8 4.7 100 0.0 1.8 236 4.0 0
21:00 - 21:30 4.4 4.8 4.0 100 0.0 1.8 104 5.4 0
21:30 - 22:00 3.8 4.4 3.4 100 0.0 1.4 17 5.8 0

Les dades en taronja només han passat un control de qualitat automàtic. Resta pendent la seva validació definitiva.